Time;durP1;ratioP1;P1;durP2;ratioP2;P2;SDS_P1;SDS_P2;PMS_P1;PMS_P2;Temp;Humidity;BMP_temperature;BMP_pressure;BME280_temperature;BME280_humidity;BME280_pressure;Samples;Min_cycle;Max_cycle;Signal;HPM_P1;HPM_P2
2022/08/27 00:02:15;;;;;;;12.40;3.50;;;25.80;59.60;;;;;;5016488;28;20191;-79
2022/08/27 00:04:45;;;;;;;14.32;3.80;;;25.80;59.70;;;;;;5020089;28;20200;-80
2022/08/27 00:07:14;;;;;;;23.25;4.35;;;25.80;59.70;;;;;;5018984;28;20204;-78
2022/08/27 00:09:43;;;;;;;15.05;4.10;;;25.80;59.70;;;;;;5018182;28;20340;-81
2022/08/27 00:12:12;;;;;;;19.95;4.28;;;25.80;59.80;;;;;;5017752;28;20286;-81
2022/08/27 00:14:40;;;;;;;16.23;3.83;;;25.80;59.80;;;;;;5021829;28;20207;-81
2022/08/27 00:17:11;;;;;;;16.77;3.85;;;25.80;59.80;;;;;;5018621;28;20192;-79
2022/08/27 00:19:40;;;;;;;14.27;3.72;;;25.80;59.80;;;;;;5015657;28;20206;-78
2022/08/27 00:22:09;;;;;;;18.35;4.20;;;25.70;59.90;;;;;;5010074;28;20207;-78
2022/08/27 00:24:37;;;;;;;8.30;3.35;;;25.70;59.90;;;;;;5013368;28;20203;-79
2022/08/27 00:27:17;;;;;;;17.05;4.88;;;25.70;59.90;;;;;;5011566;28;20689;-79
2022/08/27 00:29:45;;;;;;;12.63;4.00;;;25.70;59.90;;;;;;5018573;28;20206;-79
2022/08/27 00:32:16;;;;;;;15.75;4.72;;;25.70;60.00;;;;;;5012860;28;20196;-78
2022/08/27 00:34:44;;;;;;;20.80;4.00;;;25.70;60.20;;;;;;5013339;28;20199;-78
2022/08/27 00:37:13;;;;;;;15.63;3.85;;;25.60;61.10;;;;;;5012124;28;20211;-79
2022/08/27 00:39:42;;;;;;;16.65;3.42;;;25.60;60.90;;;;;;5015323;28;20199;-78
2022/08/27 00:42:11;;;;;;;16.77;4.15;;;25.60;60.50;;;;;;5018443;28;20196;-79
2022/08/27 00:44:39;;;;;;;16.02;3.83;;;25.60;60.70;;;;;;5016643;28;20765;-78
2022/08/27 00:47:12;;;;;;;7.18;3.30;;;25.60;60.90;;;;;;5019032;28;20196;-79
2022/08/27 00:49:46;;;;;;;10.88;3.55;;;25.60;61.20;;;;;;5016715;28;20733;-79
2022/08/27 00:52:22;;;;;;;10.68;4.10;;;25.50;61.30;;;;;;5015709;28;20218;-79
2022/08/27 00:55:06;;;;;;;18.90;4.78;;;25.50;61.60;;;;;;5017841;28;20184;-79
2022/08/27 00:57:38;;;;;;;18.10;4.00;;;25.50;61.80;;;;;;5016898;28;20191;-79
2022/08/27 01:00:12;;;;;;;12.48;5.00;;;25.40;61.90;;;;;;5015797;28;20201;-80
2022/08/27 01:02:42;;;;;;;14.93;4.40;;;25.40;62.10;;;;;;5018176;28;20188;-80
2022/08/27 01:05:16;;;;;;;9.93;4.00;;;25.40;62.10;;;;;;5018653;28;20196;-80
2022/08/27 01:07:48;;;;;;;14.43;4.35;;;25.40;62.30;;;;;;5019706;28;20226;-80
2022/08/27 01:10:21;;;;;;;16.85;4.07;;;25.30;62.30;;;;;;5017677;28;20195;-80
2022/08/27 01:12:52;;;;;;;29.15;4.20;;;25.30;62.50;;;;;;5017680;28;20203;-80
2022/08/27 01:15:24;;;;;;;14.55;4.13;;;25.30;62.60;;;;;;5018492;28;20666;-82
2022/08/27 01:17:53;;;;;;;19.05;5.05;;;25.30;62.80;;;;;;5018401;28;20204;-80
2022/08/27 01:20:27;;;;;;;24.55;4.63;;;25.30;62.90;;;;;;5017473;28;20531;-81
2022/08/27 01:23:03;;;;;;;10.75;4.55;;;25.20;63.00;;;;;;5019646;28;20198;-80
2022/08/27 01:25:33;;;;;;;17.15;4.28;;;25.20;63.20;;;;;;5010979;28;20519;-80
2022/08/27 01:28:03;;;;;;;13.15;4.32;;;25.20;63.30;;;;;;5010591;28;20189;-79
2022/08/27 01:30:32;;;;;;;14.82;3.72;;;25.20;63.40;;;;;;5019307;28;20219;-80
2022/08/27 01:33:01;;;;;;;21.45;4.03;;;25.20;63.70;;;;;;5018424;28;20215;-79
2022/08/27 01:35:29;;;;;;;16.65;4.30;;;25.20;63.60;;;;;;5013220;28;20288;-79
2022/08/27 01:38:00;;;;;;;12.10;3.95;;;25.20;63.60;;;;;;5017198;28;20194;-80
2022/08/27 01:40:29;;;;;;;16.58;4.03;;;25.10;63.60;;;;;;5019740;28;20419;-79
2022/08/27 01:43:00;;;;;;;16.83;4.40;;;25.10;63.70;;;;;;5017905;28;20200;-79
2022/08/27 01:45:32;;;;;;;12.60;4.00;;;25.10;63.90;;;;;;5017179;28;20211;-79
2022/08/27 01:48:02;;;;;;;17.75;3.95;;;25.10;63.90;;;;;;5014212;28;20192;-80
2022/08/27 01:50:34;;;;;;;22.77;5.10;;;25.10;63.90;;;;;;5015882;28;20286;-79
2022/08/27 01:53:05;;;;;;;13.05;3.90;;;25.00;64.10;;;;;;5012142;28;20682;-80
2022/08/27 01:55:34;;;;;;;18.92;4.38;;;25.00;64.40;;;;;;5018784;28;20198;-80
2022/08/27 01:58:04;;;;;;;19.80;4.45;;;25.00;64.40;;;;;;5015364;28;20196;-80
2022/08/27 02:00:35;;;;;;;14.20;4.53;;;25.00;64.60;;;;;;5017235;28;20748;-79
2022/08/27 02:03:04;;;;;;;13.15;4.00;;;25.00;64.70;;;;;;5010656;28;20818;-79
2022/08/27 02:05:33;;;;;;;11.43;4.63;;;24.90;64.80;;;;;;5012349;28;20191;-79
2022/08/27 02:08:14;;;;;;;17.05;4.47;;;24.90;64.80;;;;;;5016139;28;20248;-80
2022/08/27 02:10:45;;;;;;;15.40;3.72;;;24.90;65.00;;;;;;5017344;28;20200;-79
2022/08/27 02:13:15;;;;;;;14.52;3.55;;;24.80;65.10;;;;;;5015690;28;20211;-80
2022/08/27 02:15:44;;;;;;;15.18;4.25;;;24.80;65.40;;;;;;5015782;28;20207;-80
2022/08/27 02:18:14;;;;;;;15.88;4.68;;;24.80;65.50;;;;;;5014941;28;20440;-80
2022/08/27 02:20:44;;;;;;;15.30;3.95;;;24.80;66.90;;;;;;5017952;28;20207;-80
2022/08/27 02:23:14;;;;;;;15.85;4.20;;;24.80;66.60;;;;;;5009645;28;20212;-80
2022/08/27 02:25:43;;;;;;;13.13;4.13;;;24.80;66.60;;;;;;5017233;28;20561;-79
2022/08/27 02:28:12;;;;;;;14.27;4.00;;;24.70;66.50;;;;;;5014009;28;20673;-80
2022/08/27 02:30:41;;;;;;;26.90;5.32;;;24.70;66.60;;;;;;5014566;28;20287;-79
2022/08/27 02:33:10;;;;;;;8.85;3.78;;;24.60;66.60;;;;;;5015221;28;20241;-81
2022/08/27 02:35:41;;;;;;;18.60;4.38;;;24.60;66.70;;;;;;5019148;28;20195;-80
2022/08/27 02:38:11;;;;;;;9.93;4.28;;;24.60;66.90;;;;;;5008618;28;20192;-81
2022/08/27 02:40:40;;;;;;;10.20;4.35;;;24.60;67.00;;;;;;5010967;28;20223;-79
2022/08/27 02:43:09;;;;;;;14.93;4.47;;;24.50;67.00;;;;;;5010535;28;20211;-81
2022/08/27 02:45:44;;;;;;;14.88;3.80;;;24.50;67.30;;;;;;5016408;28;20257;-80
2022/08/27 02:48:13;;;;;;;17.38;4.35;;;24.50;67.30;;;;;;5014345;28;20199;-81
2022/08/27 02:50:42;;;;;;;11.10;4.03;;;24.50;67.30;;;;;;5016288;28;20191;-80
2022/08/27 02:53:11;;;;;;;12.75;3.70;;;24.50;67.40;;;;;;5014999;28;20215;-79
2022/08/27 02:55:39;;;;;;;19.75;4.40;;;24.50;67.60;;;;;;5018324;28;20638;-81
2022/08/27 02:58:08;;;;;;;8.30;3.78;;;24.40;67.60;;;;;;5011920;28;20223;-82
2022/08/27 03:00:37;;;;;;;15.23;4.53;;;24.50;67.70;;;;;;5015705;28;20295;-81
2022/08/27 03:03:09;;;;;;;21.45;4.53;;;24.40;67.70;;;;;;5016101;28;20203;-81
2022/08/27 03:05:38;;;;;;;19.35;4.70;;;24.40;67.80;;;;;;5012586;28;20191;-81
2022/08/27 03:08:07;;;;;;;15.85;4.57;;;24.40;67.90;;;;;;5011748;28;20223;-81
2022/08/27 03:10:36;;;;;;;9.77;3.80;;;24.30;68.00;;;;;;5013492;28;20226;-81
2022/08/27 03:13:04;;;;;;;14.27;4.13;;;24.30;68.00;;;;;;5018861;28;20207;-82
2022/08/27 03:15:33;;;;;;;10.40;3.63;;;24.30;68.10;;;;;;5011855;28;20184;-80
2022/08/27 03:18:20;;;;;;;12.85;4.20;;;24.30;68.30;;;;;;5015874;28;20199;-81
2022/08/27 03:20:52;;;;;;;14.27;4.20;;;24.30;68.50;;;;;;5016350;28;20238;-80
2022/08/27 03:23:24;;;;;;;12.52;4.45;;;24.20;68.60;;;;;;5016887;28;20195;-80
2022/08/27 03:25:54;;;;;;;14.50;4.60;;;24.20;68.60;;;;;;5012273;28;20259;-81
2022/08/27 03:28:24;;;;;;;15.60;4.70;;;24.20;68.90;;;;;;5014603;28;20203;-81
2022/08/27 03:30:57;;;;;;;13.00;3.88;;;24.20;69.20;;;;;;5011482;28;20192;-82
2022/08/27 03:33:26;;;;;;;15.05;4.32;;;24.20;69.20;;;;;;5016495;28;20219;-80
2022/08/27 03:35:56;;;;;;;14.05;4.07;;;24.20;69.30;;;;;;5022379;28;20195;-81
2022/08/27 03:38:25;;;;;;;12.88;3.95;;;24.20;69.40;;;;;;5018265;28;20192;-82
2022/08/27 03:40:54;;;;;;;13.40;3.63;;;24.10;69.40;;;;;;5011595;28;20215;-81
2022/08/27 03:43:23;;;;;;;15.02;4.18;;;24.10;69.50;;;;;;5023740;28;20199;-81
2022/08/27 03:45:52;;;;;;;11.63;4.10;;;24.10;69.70;;;;;;5022438;28;20200;-80
2022/08/27 03:48:30;;;;;;;16.67;4.18;;;24.10;69.70;;;;;;5014522;28;21000;-82
2022/08/27 03:51:05;;;;;;;20.15;4.05;;;24.10;69.90;;;;;;5011197;28;20200;-82
2022/08/27 03:53:34;;;;;;;15.30;4.32;;;24.10;70.10;;;;;;5017415;28;20311;-81
2022/08/27 03:56:05;;;;;;;12.90;4.32;;;24.00;70.10;;;;;;5022632;28;20203;-81
2022/08/27 03:58:33;;;;;;;13.07;4.15;;;24.00;70.20;;;;;;5012602;28;20200;-80
2022/08/27 04:01:02;;;;;;;13.50;3.95;;;24.10;70.20;;;;;;5009594;28;20210;-82
2022/08/27 04:03:30;;;;;;;21.48;4.30;;;24.00;70.20;;;;;;5015615;28;20242;-81
2022/08/27 04:06:01;;;;;;;17.10;4.32;;;24.00;70.30;;;;;;5021409;28;20645;-81
2022/08/27 04:08:30;;;;;;;17.85;4.35;;;24.00;70.40;;;;;;5017547;28;20228;-82
2022/08/27 04:10:58;;;;;;;18.85;5.65;;;24.00;70.40;;;;;;5013422;28;20229;-81
2022/08/27 04:13:27;;;;;;;23.08;4.95;;;24.10;70.40;;;;;;5019239;28;20310;-81
2022/08/27 04:15:55;;;;;;;20.30;4.68;;;24.00;70.30;;;;;;5016789;28;20192;-81
2022/08/27 04:18:24;;;;;;;17.58;4.13;;;24.10;71.10;;;;;;5018806;28;20195;-81
2022/08/27 04:20:53;;;;;;;17.17;4.45;;;24.10;70.30;;;;;;5021051;28;20560;-82
2022/08/27 04:23:23;;;;;;;19.23;4.32;;;24.10;70.20;;;;;;5017220;28;20290;-81
2022/08/27 04:25:51;;;;;;;17.13;5.10;;;24.10;70.30;;;;;;5017797;28;20752;-81
2022/08/27 04:28:20;;;;;;;10.15;3.70;;;24.10;70.30;;;;;;5013713;28;20189;-82
2022/08/27 04:30:48;;;;;;;26.52;4.32;;;24.10;71.10;;;;;;5021282;28;20196;-81
2022/08/27 04:33:17;;;;;;;19.40;4.38;;;24.20;70.30;;;;;;5018691;28;20353;-81
2022/08/27 04:35:45;;;;;;;14.88;4.07;;;24.20;70.30;;;;;;5015709;28;20201;-81
2022/08/27 04:38:14;;;;;;;13.43;3.85;;;24.20;70.30;;;;;;5021387;28;20232;-82
2022/08/27 04:43:30;;;;;;;17.77;4.07;;;24.20;70.20;;;;;;5019844;28;20966;-82
2022/08/27 04:45:58;;;;;;;17.48;5.00;;;24.20;70.10;;;;;;5021390;28;20693;-81
2022/08/27 04:48:27;;;;;;;21.15;4.72;;;24.20;70.10;;;;;;5018801;28;20199;-81
2022/08/27 04:50:55;;;;;;;11.90;3.80;;;24.20;70.10;;;;;;5017922;28;20567;-82
2022/08/27 04:53:24;;;;;;;16.38;4.40;;;24.30;70.10;;;;;;5019327;28;20542;-81
2022/08/27 04:55:56;;;;;;;20.42;4.70;;;24.30;70.10;;;;;;5019838;28;20227;-81
2022/08/27 04:58:26;;;;;;;14.57;4.72;;;24.30;71.00;;;;;;5014211;28;20206;-81
2022/08/27 05:01:00;;;;;;;16.88;4.20;;;24.30;70.10;;;;;;5015034;28;20199;-81
2022/08/27 05:03:29;;;;;;;19.13;5.25;;;24.40;70.10;;;;;;5020665;28;20192;-81
2022/08/27 05:06:01;;;;;;;14.60;4.47;;;24.40;70.00;;;;;;5019109;28;20203;-81
2022/08/27 05:08:30;;;;;;;17.83;4.03;;;24.40;69.90;;;;;;5014837;28;20281;-82
2022/08/27 05:11:00;;;;;;;18.85;4.90;;;24.50;69.90;;;;;;5014181;28;20207;-81
2022/08/27 05:13:29;;;;;;;17.25;4.00;;;24.50;69.70;;;;;;5019194;28;20222;-82
2022/08/27 05:16:00;;;;;;;14.52;4.20;;;24.60;69.60;;;;;;5017520;28;20202;-81
2022/08/27 05:18:29;;;;;;;12.93;4.68;;;24.60;69.50;;;;;;5015898;28;20290;-81
2022/08/27 05:21:00;;;;;;;16.73;4.55;;;24.60;69.50;;;;;;5016928;28;20892;-81
2022/08/27 05:23:29;;;;;;;14.98;3.90;;;24.60;69.40;;;;;;5017948;28;20287;-81
2022/08/27 05:25:59;;;;;;;22.13;4.85;;;24.70;69.50;;;;;;5018933;28;20559;-81
2022/08/27 05:28:29;;;;;;;16.08;4.70;;;24.70;69.30;;;;;;5019358;28;20298;-81
2022/08/27 05:31:05;;;;;;;13.60;4.05;;;24.80;69.30;;;;;;5018400;28;20693;-83
2022/08/27 05:33:34;;;;;;;21.52;4.00;;;24.80;69.20;;;;;;5016367;28;20221;-82
2022/08/27 05:36:03;;;;;;;20.00;3.78;;;24.80;69.00;;;;;;5015356;28;20200;-81
2022/08/27 05:38:33;;;;;;;26.52;4.53;;;24.90;69.10;;;;;;5019839;28;20191;-79
2022/08/27 05:41:06;;;;;;;21.48;5.00;;;24.90;69.10;;;;;;5018767;28;20218;-81
2022/08/27 05:43:35;;;;;;;17.20;3.65;;;24.90;68.90;;;;;;5018185;28;20188;-84
2022/08/27 05:46:05;;;;;;;23.50;5.32;;;25.00;68.80;;;;;;5020433;28;20202;-80
2022/08/27 05:48:35;;;;;;;20.25;4.18;;;25.00;68.60;;;;;;5016175;28;20292;-80
2022/08/27 05:51:09;;;;;;;21.77;4.60;;;25.10;68.50;;;;;;5022266;28;20326;-80
2022/08/27 05:53:41;;;;;;;21.10;4.78;;;25.10;68.50;;;;;;5015578;28;20211;-81
2022/08/27 05:56:15;;;;;;;20.48;4.60;;;25.10;68.60;;;;;;5015438;28;20708;-80
2022/08/27 06:01:32;;;;;;;26.08;4.95;;;25.20;68.50;;;;;;5014838;28;20363;-80
2022/08/27 06:04:01;;;;;;;24.85;4.63;;;25.30;68.40;;;;;;5016991;28;20183;-80
2022/08/27 06:06:29;;;;;;;16.08;4.72;;;25.30;68.20;;;;;;5022403;28;20653;-78
2022/08/27 06:08:58;;;;;;;14.95;4.10;;;25.40;68.20;;;;;;5032734;28;20321;-80
2022/08/27 06:11:28;;;;;;;15.38;3.95;;;25.40;68.10;;;;;;5040209;28;20191;-80
2022/08/27 06:13:57;;;;;;;14.55;3.85;;;25.50;68.20;;;;;;5040955;28;20214;-79
2022/08/27 06:16:26;;;;;;;18.00;4.53;;;25.60;68.10;;;;;;5040524;28;20712;-79
2022/08/27 06:18:56;;;;;;;21.73;4.65;;;25.70;68.10;;;;;;5035299;28;20863;-79
2022/08/27 06:21:25;;;;;;;14.23;4.03;;;25.70;68.10;;;;;;5040135;28;20719;-79
2022/08/27 06:23:54;;;;;;;18.02;4.05;;;25.80;68.10;;;;;;5033486;28;20203;-79
2022/08/27 06:26:25;;;;;;;27.02;4.88;;;25.80;68.00;;;;;;5040031;28;20428;-80
2022/08/27 06:28:55;;;;;;;20.40;4.40;;;25.90;68.00;;;;;;5036318;28;20190;-78
2022/08/27 06:31:26;;;;;;;16.38;4.18;;;26.00;68.00;;;;;;5038719;28;20195;-79
2022/08/27 06:33:59;;;;;;;25.20;4.28;;;26.10;67.90;;;;;;5032706;28;20600;-79
2022/08/27 06:36:31;;;;;;;32.60;4.95;;;26.20;67.90;;;;;;5037346;28;20199;-79
2022/08/27 06:39:00;;;;;;;23.83;4.80;;;26.30;67.80;;;;;;5036584;28;20728;-78
2022/08/27 06:41:29;;;;;;;19.55;4.43;;;26.30;67.40;;;;;;5037816;28;20195;-81
2022/08/27 06:44:00;;;;;;;23.77;4.28;;;26.40;67.30;;;;;;5043971;28;20217;-79
2022/08/27 06:46:29;;;;;;;18.50;4.28;;;26.50;67.20;;;;;;5038851;28;20198;-79
2022/08/27 06:48:59;;;;;;;15.90;4.18;;;26.60;67.00;;;;;;5039786;28;20318;-79
2022/08/27 06:51:30;;;;;;;28.20;5.65;;;26.70;66.60;;;;;;5038375;28;20199;-79
2022/08/27 06:54:00;;;;;;;20.65;4.20;;;26.80;66.30;;;;;;5035544;28;20218;-78
2022/08/27 06:56:29;;;;;;;21.10;4.20;;;26.90;66.10;;;;;;5035842;28;20191;-79
2022/08/27 06:59:01;;;;;;;16.48;4.90;;;27.00;66.00;;;;;;5035560;28;20200;-80
2022/08/27 07:01:32;;;;;;;23.35;4.85;;;27.00;65.60;;;;;;5036440;28;20195;-79
2022/08/27 07:04:03;;;;;;;24.77;5.35;;;27.10;65.40;;;;;;5038087;28;20303;-79
2022/08/27 07:06:32;;;;;;;16.60;4.38;;;27.20;65.30;;;;;;5034413;28;20194;-80
2022/08/27 07:09:02;;;;;;;24.98;4.95;;;27.30;65.20;;;;;;5034146;28;20706;-79
2022/08/27 07:11:31;;;;;;;18.17;4.68;;;27.30;64.80;;;;;;5042569;28;20207;-80
2022/08/27 07:14:02;;;;;;;12.15;3.53;;;27.40;64.70;;;;;;5036122;28;20218;-81
2022/08/27 07:16:30;;;;;;;22.50;3.92;;;27.50;64.20;;;;;;5032858;28;20328;-81
2022/08/27 07:19:02;;;;;;;21.33;4.75;;;27.60;64.00;;;;;;5040132;28;20241;-80
2022/08/27 07:21:32;;;;;;;24.08;4.50;;;27.60;63.60;;;;;;5039085;28;20241;-81
2022/08/27 07:24:04;;;;;;;22.40;4.80;;;27.70;63.40;;;;;;5025473;28;20199;-80
2022/08/27 07:26:34;;;;;;;17.27;4.03;;;27.80;63.20;;;;;;5029355;28;20195;-81
2022/08/27 07:29:05;;;;;;;21.35;3.70;;;27.90;63.10;;;;;;5034128;28;20282;-80
2022/08/27 07:31:34;;;;;;;21.02;4.43;;;27.90;62.80;;;;;;5038294;28;21420;-82
2022/08/27 07:34:03;;;;;;;19.95;3.95;;;28.10;63.00;;;;;;5033337;28;20227;-79
2022/08/27 07:36:32;;;;;;;13.77;4.82;;;28.10;62.90;;;;;;5033374;28;20306;-79
2022/08/27 07:39:01;;;;;;;22.05;4.15;;;28.20;62.90;;;;;;5035759;28;20199;-79
2022/08/27 07:41:30;;;;;;;19.45;4.00;;;28.30;63.00;;;;;;5026082;28;20200;-80
2022/08/27 07:46:56;;;;;;;16.23;3.47;;;28.40;62.80;;;;;;5037787;28;20294;-84
2022/08/27 07:49:25;;;;;;;20.33;4.95;;;28.50;62.70;;;;;;5038000;28;20188;-79
2022/08/27 07:51:53;;;;;;;20.42;4.05;;;28.60;63.10;;;;;;5033976;28;20221;-79
2022/08/27 07:54:23;;;;;;;20.80;3.78;;;28.60;62.00;;;;;;5036485;28;20215;-80
2022/08/27 07:56:52;;;;;;;25.85;4.15;;;28.70;62.10;;;;;;5033855;28;20206;-78
2022/08/27 07:59:23;;;;;;;17.75;4.80;;;28.80;61.90;;;;;;5033789;28;20211;-80
2022/08/27 08:01:52;;;;;;;30.35;5.20;;;28.90;61.30;;;;;;5035800;28;20290;-78
2022/08/27 08:04:22;;;;;;;20.90;3.78;;;28.90;60.30;;;;;;5041165;28;20222;-77
2022/08/27 08:06:54;;;;;;;24.08;3.90;;;29.00;59.50;;;;;;5039217;28;20195;-78
2022/08/27 08:09:23;;;;;;;26.08;4.43;;;29.10;59.40;;;;;;5037951;28;20675;-78
2022/08/27 08:11:53;;;;;;;19.15;4.00;;;29.10;58.70;;;;;;5035731;28;20680;-78
2022/08/27 08:14:22;;;;;;;19.50;4.25;;;29.20;58.70;;;;;;5036202;28;20223;-79
2022/08/27 08:16:50;;;;;;;24.83;4.68;;;29.20;58.70;;;;;;5039817;28;20573;-82
2022/08/27 08:19:19;;;;;;;27.38;4.72;;;29.30;57.80;;;;;;5043108;28;20253;-79
2022/08/27 08:21:52;;;;;;;21.77;3.83;;;29.30;57.50;;;;;;5039106;28;20187;-78
2022/08/27 08:24:28;;;;;;;26.80;3.78;;;29.50;57.60;;;;;;5043828;28;20306;-78
2022/08/27 08:26:59;;;;;;;23.98;4.13;;;29.50;57.40;;;;;;5042707;28;20206;-80
2022/08/27 08:29:34;;;;;;;11.15;3.78;;;29.60;57.30;;;;;;5042701;28;20193;-78
2022/08/27 08:32:02;;;;;;;29.58;3.53;;;29.60;56.90;;;;;;5043104;28;20270;-78
2022/08/27 08:34:34;;;;;;;27.10;4.35;;;29.70;57.10;;;;;;5042019;28;20211;-77
2022/08/27 08:37:05;;;;;;;21.67;3.75;;;29.70;57.00;;;;;;5039186;28;20573;-78
2022/08/27 08:39:34;;;;;;;24.52;4.55;;;29.80;56.70;;;;;;5041590;28;20937;-78
2022/08/27 08:42:06;;;;;;;20.50;3.35;;;29.80;56.70;;;;;;5041385;28;20229;-78
2022/08/27 08:44:40;;;;;;;21.42;3.72;;;29.90;56.60;;;;;;5042336;28;20213;-79
2022/08/27 08:47:13;;;;;;;26.10;5.13;;;29.90;56.40;;;;;;5036161;28;20809;-82
2022/08/27 08:49:49;;;;;;;30.58;4.20;;;30.00;55.70;;;;;;5039412;28;20207;-78
2022/08/27 08:52:28;;;;;;;14.90;3.90;;;30.00;55.90;;;;;;5043456;28;20725;-79
2022/08/27 08:55:10;;;;;;;19.88;3.40;;;30.10;56.00;;;;;;5042549;28;20681;-79
2022/08/27 08:57:46;;;;;;;20.42;3.22;;;30.20;56.10;;;;;;5035773;28;20186;-81
2022/08/27 09:00:15;;;;;;;19.25;4.00;;;30.20;56.10;;;;;;5039202;28;20201;-81
2022/08/27 09:02:50;;;;;;;18.67;3.75;;;30.30;56.20;;;;;;5035787;28;20211;-80
2022/08/27 09:05:19;;;;;;;22.52;4.32;;;30.30;55.80;;;;;;5040578;28;20261;-80
2022/08/27 09:08:04;;;;;;;9.68;3.50;;;30.40;55.60;;;;;;5035362;28;20266;-83
2022/08/27 09:10:59;;;;;;;17.17;3.35;;;30.40;55.50;;;;;;5036982;28;20885;-82
2022/08/27 09:13:32;;;;;;;14.00;3.67;;;30.40;55.40;;;;;;5037630;28;20826;-80
2022/08/27 09:16:04;;;;;;;12.38;3.80;;;30.50;55.20;;;;;;5041586;28;20818;-78
2022/08/27 09:18:35;;;;;;;22.02;3.97;;;30.60;55.20;;;;;;5038742;28;20187;-78
2022/08/27 09:21:14;;;;;;;23.65;3.28;;;30.60;55.30;;;;;;5024024;28;20676;-82
2022/08/27 09:23:57;;;;;;;13.13;3.15;;;30.70;54.80;;;;;;5032176;28;20217;-78
2022/08/27 09:26:28;;;;;;;12.65;3.33;;;30.80;54.20;;;;;;5029096;28;20723;-79
2022/08/27 09:29:18;;;;;;;18.38;3.83;;;30.80;54.20;;;;;;5031009;28;20191;-79
2022/08/27 09:31:53;;;;;;;19.08;3.67;;;30.80;53.90;;;;;;5041256;28;20195;-78
2022/08/27 09:34:23;;;;;;;16.02;3.55;;;30.80;52.80;;;;;;5041675;28;20186;-80
2022/08/27 09:37:00;;;;;;;24.23;3.47;;;30.90;52.30;;;;;;5034412;28;20238;-78
2022/08/27 09:39:41;;;;;;;13.32;3.30;;;30.90;52.80;;;;;;5032172;28;20195;-79
2022/08/27 09:42:25;;;;;;;20.52;3.90;;;31.10;52.00;;;;;;5038857;28;20886;-80
2022/08/27 09:44:55;;;;;;;15.95;3.55;;;31.10;51.70;;;;;;5024955;28;20222;-79
2022/08/27 09:47:24;;;;;;;15.50;3.13;;;31.10;52.00;;;;;;5033569;28;20191;-79
2022/08/27 09:50:08;;;;;;;21.85;3.35;;;31.20;52.20;;;;;;5041964;28;20821;-78
2022/08/27 09:52:47;;;;;;;14.57;3.70;;;31.20;52.10;;;;;;5040298;28;20245;-79
2022/08/27 09:55:30;;;;;;;17.20;3.50;;;31.30;51.70;;;;;;5039359;28;20246;-82
2022/08/27 09:58:00;;;;;;;14.80;3.58;;;31.30;49.60;;;;;;5028605;28;20202;-78
2022/08/27 10:00:35;;;;;;;15.52;2.90;;;31.40;49.90;;;;;;5032904;28;20225;-81
2022/08/27 10:03:06;;;;;;;23.60;3.00;;;31.50;50.20;;;;;;5035978;28;20193;-82
2022/08/27 10:05:39;;;;;;;16.75;3.83;;;31.50;50.20;;;;;;5029271;28;20195;-81
2022/08/27 10:08:19;;;;;;;22.92;3.42;;;31.50;49.20;;;;;;5031259;28;20309;-78
2022/08/27 10:10:55;;;;;;;10.93;3.00;;;31.60;49.50;;;;;;5033622;28;20193;-81
2022/08/27 10:13:30;;;;;;;11.10;3.28;;;31.70;49.80;;;;;;5042518;28;20191;-79
2022/08/27 10:16:32;;;;;;;12.00;3.47;;;31.70;49.60;;;;;;5028615;28;20209;-78
2022/08/27 10:19:16;;;;;;;14.98;3.60;;;31.80;49.50;;;;;;5041462;28;20206;-78
2022/08/27 10:21:53;;;;;;;26.42;4.30;;;31.80;50.00;;;;;;5039082;28;20290;-79
2022/08/27 10:24:33;;;;;;;17.98;3.55;;;31.80;49.70;;;;;;5040107;28;20613;-79
2022/08/27 10:27:10;;;;;;;19.33;3.17;;;32.00;49.70;;;;;;5037636;28;20281;-81
2022/08/27 10:29:46;;;;;;;17.33;3.45;;;32.00;49.50;;;;;;5026034;28;20234;-78
2022/08/27 10:32:32;;;;;;;16.70;3.72;;;32.10;49.80;;;;;;5038303;28;20195;-80
2022/08/27 10:35:08;;;;;;;13.63;3.75;;;32.10;49.80;;;;;;5042460;28;20210;-79
2022/08/27 10:37:51;;;;;;;14.52;3.03;;;32.20;49.50;;;;;;5024423;28;20198;-78
2022/08/27 10:40:26;;;;;;;18.65;3.88;;;32.20;49.40;;;;;;5021789;28;20207;-78
2022/08/27 10:43:11;;;;;;;15.45;3.13;;;32.30;49.40;;;;;;5036534;28;20850;-79
2022/08/27 10:45:47;;;;;;;14.80;2.47;;;32.40;49.50;;;;;;5031733;28;20200;-78
2022/08/27 10:48:24;;;;;;;17.05;3.58;;;32.40;49.50;;;;;;5023560;28;20199;-81
2022/08/27 10:50:59;;;;;;;23.15;3.67;;;32.40;49.00;;;;;;5025706;28;20269;-79
2022/08/27 10:53:37;;;;;;;13.50;3.10;;;32.50;48.50;;;;;;5040961;28;20197;-79
2022/08/27 10:56:14;;;;;;;16.15;3.42;;;32.40;48.30;;;;;;5040565;28;20218;-82
2022/08/27 10:59:05;;;;;;;18.80;3.50;;;32.40;48.40;;;;;;5027702;28;20199;-78
2022/08/27 11:01:43;;;;;;;14.82;3.47;;;32.40;48.80;;;;;;5031124;28;20281;-80
2022/08/27 11:04:18;;;;;;;25.67;3.70;;;32.40;48.10;;;;;;5040689;28;20675;-81
2022/08/27 11:06:53;;;;;;;18.67;4.10;;;32.30;48.00;;;;;;5041144;28;20230;-82
2022/08/27 11:09:26;;;;;;;23.45;3.28;;;32.20;47.40;;;;;;5024071;28;20229;-80
2022/08/27 11:12:00;;;;;;;23.77;4.03;;;32.20;47.70;;;;;;5028536;28;20844;-78
2022/08/27 11:14:51;;;;;;;19.77;3.38;;;32.20;47.60;;;;;;5035985;28;20230;-78
2022/08/27 11:17:26;;;;;;;18.85;3.60;;;32.30;47.90;;;;;;5033940;28;20716;-78
2022/08/27 11:20:07;;;;;;;23.48;3.60;;;32.30;47.70;;;;;;5031792;28;20195;-80
2022/08/27 11:22:40;;;;;;;28.25;3.95;;;32.40;47.90;;;;;;5028112;28;20195;-78
2022/08/27 11:25:19;;;;;;;17.20;3.58;;;32.50;48.00;;;;;;5041293;28;20190;-79
2022/08/27 11:27:49;;;;;;;26.83;3.20;;;32.50;47.80;;;;;;5035329;28;20570;-79
2022/08/27 11:30:24;;;;;;;18.52;3.28;;;32.50;47.50;;;;;;5035105;28;20191;-80
2022/08/27 11:33:02;;;;;;;20.65;3.33;;;32.60;47.40;;;;;;5024319;28;20194;-79
2022/08/27 11:35:37;;;;;;;18.25;3.05;;;32.60;47.30;;;;;;5024262;28;20195;-78
2022/08/27 11:38:27;;;;;;;24.40;3.55;;;32.60;47.30;;;;;;5027244;28;20180;-77
2022/08/27 11:41:07;;;;;;;17.17;4.05;;;32.70;47.60;;;;;;5023825;28;20199;-79
2022/08/27 11:43:37;;;;;;;26.23;3.75;;;32.70;47.50;;;;;;5031600;28;20222;-80
2022/08/27 11:46:08;;;;;;;28.55;4.97;;;32.70;47.50;;;;;;5038769;28;20201;-79
2022/08/27 11:48:41;;;;;;;16.73;4.13;;;32.70;47.00;;;;;;5026158;28;20205;-78
2022/08/27 11:51:13;;;;;;;19.27;3.95;;;32.80;47.20;;;;;;5032432;28;20959;-80
2022/08/27 11:53:56;;;;;;;22.95;3.30;;;32.80;47.10;;;;;;5033488;28;20191;-78
2022/08/27 11:56:39;;;;;;;28.55;3.97;;;32.90;47.30;;;;;;5036199;28;20215;-81
2022/08/27 11:59:19;;;;;;;28.70;3.75;;;32.90;46.80;;;;;;5039888;28;20187;-81
2022/08/27 12:01:51;;;;;;;19.38;3.25;;;33.00;46.90;;;;;;5027225;28;20195;-79
2022/08/27 12:04:24;;;;;;;32.95;4.20;;;33.10;47.00;;;;;;5033567;28;20776;-79
2022/08/27 12:07:01;;;;;;;25.58;2.97;;;33.10;46.90;;;;;;5044223;28;20182;-80
2022/08/27 12:09:42;;;;;;;22.85;3.70;;;33.20;46.90;;;;;;5039642;28;20261;-79
2022/08/27 12:12:19;;;;;;;15.70;3.22;;;33.20;47.10;;;;;;5034821;28;20188;-81
2022/08/27 12:14:54;;;;;;;8.98;2.70;;;33.20;46.80;;;;;;5044951;28;20217;-80
2022/08/27 12:17:37;;;;;;;14.63;3.13;;;33.30;46.70;;;;;;5036783;28;20206;-79
2022/08/27 12:20:18;;;;;;;22.42;3.50;;;33.30;46.40;;;;;;5041568;28;20202;-82
2022/08/27 12:25:43;;;;;;;27.90;4.68;;;33.40;46.40;;;;;;5032288;28;22711;-80
2022/08/27 12:28:23;;;;;;;17.42;3.70;;;33.40;46.30;;;;;;5041765;28;20194;-81
2022/08/27 12:30:55;;;;;;;21.05;3.63;;;33.40;45.80;;;;;;5037389;28;20728;-79
2022/08/27 12:33:30;;;;;;;18.77;2.90;;;33.50;46.00;;;;;;5037371;28;20641;-80
2022/08/27 12:36:07;;;;;;;17.73;4.85;;;33.50;45.60;;;;;;5032953;28;20880;-77
2022/08/27 12:38:46;;;;;;;20.90;3.47;;;33.60;45.40;;;;;;5027200;28;20206;-80
2022/08/27 12:41:30;;;;;;;19.17;4.50;;;33.50;44.80;;;;;;5035636;28;20747;-80
2022/08/27 12:44:04;;;;;;;20.50;4.00;;;33.50;45.20;;;;;;5031031;28;20602;-78
2022/08/27 12:46:33;;;;;;;28.30;3.15;;;33.50;45.00;;;;;;5040847;28;20303;-80
2022/08/27 12:49:04;;;;;;;24.55;3.45;;;33.50;45.10;;;;;;5039784;28;20199;-78
2022/08/27 12:51:54;;;;;;;23.48;3.20;;;33.60;45.30;;;;;;5038697;28;20199;-79
2022/08/27 12:54:35;;;;;;;18.45;3.35;;;33.60;45.40;;;;;;5040309;28;20602;-80
2022/08/27 12:57:13;;;;;;;14.75;3.15;;;33.60;45.40;;;;;;5040902;28;20222;-78
2022/08/27 12:59:59;;;;;;;26.42;3.40;;;33.60;44.90;;;;;;5041483;28;20191;-80
2022/08/27 13:02:48;;;;;;;20.17;3.72;;;33.60;44.90;;;;;;5028293;28;20207;-79
2022/08/27 13:05:22;;;;;;;26.77;3.50;;;33.70;44.80;;;;;;5038461;28;20202;-78
2022/08/27 13:07:52;;;;;;;14.75;2.80;;;33.70;44.60;;;;;;5034070;28;20614;-79
2022/08/27 13:10:24;;;;;;;25.77;3.75;;;33.70;44.40;;;;;;5034288;28;20183;-79
2022/08/27 13:13:03;;;;;;;20.63;4.53;;;33.70;44.30;;;;;;5041346;28;20203;-80
2022/08/27 13:15:33;;;;;;;16.65;2.95;;;33.70;44.60;;;;;;5034532;28;20696;-78
2022/08/27 13:18:05;;;;;;;16.33;2.90;;;33.70;44.80;;;;;;5035115;28;20223;-81